sensor_id;sensor_type;location;lat;lon;timestamp;temperature;humidity
1011;DHT22;494;48.744;10.106;2022-07-22T00:01:28;19.70;49.80
1011;DHT22;494;48.744;10.106;2022-07-22T00:03:57;19.60;49.10
1011;DHT22;494;48.744;10.106;2022-07-22T00:06:28;19.60;49.00
1011;DHT22;494;48.744;10.106;2022-07-22T00:08:57;19.70;49.10
1011;DHT22;494;48.744;10.106;2022-07-22T00:11:26;19.60;49.10
1011;DHT22;494;48.744;10.106;2022-07-22T00:13:55;19.60;49.00
1011;DHT22;494;48.744;10.106;2022-07-22T00:16:23;19.50;49.30
1011;DHT22;494;48.744;10.106;2022-07-22T00:18:52;19.50;49.60
1011;DHT22;494;48.744;10.106;2022-07-22T00:21:21;19.40;49.80
1011;DHT22;494;48.744;10.106;2022-07-22T00:23:51;19.40;50.00
1011;DHT22;494;48.744;10.106;2022-07-22T00:26:20;19.40;50.10
1011;DHT22;494;48.744;10.106;2022-07-22T00:28:48;19.40;50.00
1011;DHT22;494;48.744;10.106;2022-07-22T00:31:17;19.40;49.90
1011;DHT22;494;48.744;10.106;2022-07-22T00:33:46;19.40;49.80
1011;DHT22;494;48.744;10.106;2022-07-22T00:36:15;19.40;49.60
1011;DHT22;494;48.744;10.106;2022-07-22T00:38:44;19.40;49.50
1011;DHT22;494;48.744;10.106;2022-07-22T00:41:14;19.20;49.30
1011;DHT22;494;48.744;10.106;2022-07-22T00:43:50;19.20;49.40
1011;DHT22;494;48.744;10.106;2022-07-22T00:46:22;19.10;49.80
1011;DHT22;494;48.744;10.106;2022-07-22T00:48:51;19.10;50.00
1011;DHT22;494;48.744;10.106;2022-07-22T00:51:21;19.10;50.10
1011;DHT22;494;48.744;10.106;2022-07-22T00:53:52;19.10;50.10
1011;DHT22;494;48.744;10.106;2022-07-22T00:56:27;19.10;50.10
1011;DHT22;494;48.744;10.106;2022-07-22T00:58:59;19.10;50.00
1011;DHT22;494;48.744;10.106;2022-07-22T01:01:30;18.90;50.00
1011;DHT22;494;48.744;10.106;2022-07-22T01:04:00;18.90;50.00
1011;DHT22;494;48.744;10.106;2022-07-22T01:06:29;18.80;50.10
1011;DHT22;494;48.744;10.106;2022-07-22T01:08:59;18.80;50.30
1011;DHT22;494;48.744;10.106;2022-07-22T01:11:29;18.70;50.80
1011;DHT22;494;48.744;10.106;2022-07-22T01:13:58;18.60;51.90
1011;DHT22;494;48.744;10.106;2022-07-22T01:16:27;18.60;51.20
1011;DHT22;494;48.744;10.106;2022-07-22T01:18:56;18.50;51.20
1011;DHT22;494;48.744;10.106;2022-07-22T01:21:26;18.40;51.70
1011;DHT22;494;48.744;10.106;2022-07-22T01:23:55;18.30;52.20
1011;DHT22;494;48.744;10.106;2022-07-22T01:26:24;18.20;52.30
1011;DHT22;494;48.744;10.106;2022-07-22T01:28:53;18.30;52.40
1011;DHT22;494;48.744;10.106;2022-07-22T01:31:22;18.30;52.30
1011;DHT22;494;48.744;10.106;2022-07-22T01:33:51;18.40;52.30
1011;DHT22;494;48.744;10.106;2022-07-22T01:36:20;18.40;52.00
1011;DHT22;494;48.744;10.106;2022-07-22T01:38:50;18.40;51.90
1011;DHT22;494;48.744;10.106;2022-07-22T01:41:20;18.40;52.00
1011;DHT22;494;48.744;10.106;2022-07-22T01:43:48;18.40;52.10
1011;DHT22;494;48.744;10.106;2022-07-22T01:46:17;18.40;52.10
1011;DHT22;494;48.744;10.106;2022-07-22T01:48:46;18.40;52.10
1011;DHT22;494;48.744;10.106;2022-07-22T01:51:15;18.40;52.10
1011;DHT22;494;48.744;10.106;2022-07-22T01:53:44;18.50;52.10
1011;DHT22;494;48.744;10.106;2022-07-22T01:56:15;18.50;52.10
1011;DHT22;494;48.744;10.106;2022-07-22T01:58:43;18.50;52.00
1011;DHT22;494;48.744;10.106;2022-07-22T02:01:12;18.50;52.10
1011;DHT22;494;48.744;10.106;2022-07-22T02:03:41;18.50;52.20
1011;DHT22;494;48.744;10.106;2022-07-22T02:06:10;18.50;52.10
1011;DHT22;494;48.744;10.106;2022-07-22T02:08:38;18.50;51.90
1011;DHT22;494;48.744;10.106;2022-07-22T02:11:07;18.50;51.30
1011;DHT22;494;48.744;10.106;2022-07-22T02:13:37;18.40;51.20
1011;DHT22;494;48.744;10.106;2022-07-22T02:16:06;18.40;51.30
1011;DHT22;494;48.744;10.106;2022-07-22T02:18:34;18.40;51.40
1011;DHT22;494;48.744;10.106;2022-07-22T02:21:03;18.40;51.60
1011;DHT22;494;48.744;10.106;2022-07-22T02:23:32;18.40;51.60
1011;DHT22;494;48.744;10.106;2022-07-22T02:26:01;18.40;51.60
1011;DHT22;494;48.744;10.106;2022-07-22T02:28:29;18.30;51.70
1011;DHT22;494;48.744;10.106;2022-07-22T02:30:59;18.30;51.70
1011;DHT22;494;48.744;10.106;2022-07-22T02:33:28;18.20;51.90
1011;DHT22;494;48.744;10.106;2022-07-22T02:35:59;18.20;52.10
1011;DHT22;494;48.744;10.106;2022-07-22T02:38:30;18.20;52.30
1011;DHT22;494;48.744;10.106;2022-07-22T02:40:58;18.10;52.40
1011;DHT22;494;48.744;10.106;2022-07-22T02:43:27;18.20;52.30
1011;DHT22;494;48.744;10.106;2022-07-22T02:45:56;18.20;52.30
1011;DHT22;494;48.744;10.106;2022-07-22T02:48:26;18.20;52.30
1011;DHT22;494;48.744;10.106;2022-07-22T02:50:55;18.30;52.20
1011;DHT22;494;48.744;10.106;2022-07-22T02:53:23;18.30;52.00
1011;DHT22;494;48.744;10.106;2022-07-22T02:55:52;18.20;51.30
1011;DHT22;494;48.744;10.106;2022-07-22T02:58:21;18.10;51.20
1011;DHT22;494;48.744;10.106;2022-07-22T03:00:50;18.10;51.40
1011;DHT22;494;48.744;10.106;2022-07-22T03:03:19;18.00;51.50
1011;DHT22;494;48.744;10.106;2022-07-22T03:05:49;18.00;51.70
1011;DHT22;494;48.744;10.106;2022-07-22T03:08:18;18.00;51.70
1011;DHT22;494;48.744;10.106;2022-07-22T03:10:47;18.00;51.40
1011;DHT22;494;48.744;10.106;2022-07-22T03:13:15;17.90;51.60
1011;DHT22;494;48.744;10.106;2022-07-22T03:15:44;17.90;51.80
1011;DHT22;494;48.744;10.106;2022-07-22T03:18:14;17.90;51.70
1011;DHT22;494;48.744;10.106;2022-07-22T03:20:43;17.90;51.90
1011;DHT22;494;48.744;10.106;2022-07-22T03:23:13;17.90;52.10
1011;DHT22;494;48.744;10.106;2022-07-22T03:25:41;18.00;52.10
1011;DHT22;494;48.744;10.106;2022-07-22T03:28:10;17.90;52.00
1011;DHT22;494;48.744;10.106;2022-07-22T03:30:39;17.90;52.00
1011;DHT22;494;48.744;10.106;2022-07-22T03:33:08;17.80;51.90
1011;DHT22;494;48.744;10.106;2022-07-22T03:35:36;17.80;51.80
1011;DHT22;494;48.744;10.106;2022-07-22T03:38:05;17.80;51.80
1011;DHT22;494;48.744;10.106;2022-07-22T03:40:35;17.90;51.90
1011;DHT22;494;48.744;10.106;2022-07-22T03:43:04;17.90;51.80
1011;DHT22;494;48.744;10.106;2022-07-22T03:45:33;17.90;51.70
1011;DHT22;494;48.744;10.106;2022-07-22T03:48:01;17.80;51.40
1011;DHT22;494;48.744;10.106;2022-07-22T03:50:31;17.80;51.60
1011;DHT22;494;48.744;10.106;2022-07-22T03:52:59;17.70;51.70
1011;DHT22;494;48.744;10.106;2022-07-22T03:55:28;17.80;51.90
1011;DHT22;494;48.744;10.106;2022-07-22T03:57:58;17.80;52.10
1011;DHT22;494;48.744;10.106;2022-07-22T04:00:27;17.80;51.90
1011;DHT22;494;48.744;10.106;2022-07-22T04:02:56;17.80;51.70
1011;DHT22;494;48.744;10.106;2022-07-22T04:05:24;17.80;51.90
1011;DHT22;494;48.744;10.106;2022-07-22T04:07:53;17.80;51.90
1011;DHT22;494;48.744;10.106;2022-07-22T04:10:22;17.90;51.80
1011;DHT22;494;48.744;10.106;2022-07-22T04:12:50;17.80;51.70
1011;DHT22;494;48.744;10.106;2022-07-22T04:15:23;17.90;52.00
1011;DHT22;494;48.744;10.106;2022-07-22T04:17:52;17.80;51.90
1011;DHT22;494;48.744;10.106;2022-07-22T04:20:21;17.80;51.90
1011;DHT22;494;48.744;10.106;2022-07-22T04:22:49;17.90;52.00
1011;DHT22;494;48.744;10.106;2022-07-22T04:25:18;17.90;51.90
1011;DHT22;494;48.744;10.106;2022-07-22T04:27:48;17.90;51.90
1011;DHT22;494;48.744;10.106;2022-07-22T04:30:17;17.80;52.00
1011;DHT22;494;48.744;10.106;2022-07-22T04:32:47;17.90;52.30
1011;DHT22;494;48.744;10.106;2022-07-22T04:35:16;17.90;52.20
1011;DHT22;494;48.744;10.106;2022-07-22T04:37:45;17.80;52.30
1011;DHT22;494;48.744;10.106;2022-07-22T04:40:13;17.90;52.60
1011;DHT22;494;48.744;10.106;2022-07-22T04:42:42;17.80;53.00
1011;DHT22;494;48.744;10.106;2022-07-22T04:45:12;17.70;53.60
1011;DHT22;494;48.744;10.106;2022-07-22T04:47:41;17.70;53.80
1011;DHT22;494;48.744;10.106;2022-07-22T04:50:11;17.80;53.50
1011;DHT22;494;48.744;10.106;2022-07-22T04:52:40;17.90;53.10
1011;DHT22;494;48.744;10.106;2022-07-22T04:55:15;17.90;52.60
1011;DHT22;494;48.744;10.106;2022-07-22T04:57:45;18.10;52.80
1011;DHT22;494;48.744;10.106;2022-07-22T05:00:15;18.10;52.60
1011;DHT22;494;48.744;10.106;2022-07-22T05:02:44;18.20;52.60
1011;DHT22;494;48.744;10.106;2022-07-22T05:05:14;18.30;52.50
1011;DHT22;494;48.744;10.106;2022-07-22T05:07:43;18.40;52.00
1011;DHT22;494;48.744;10.106;2022-07-22T05:10:12;18.50;52.20
1011;DHT22;494;48.744;10.106;2022-07-22T05:12:47;18.50;52.10
1011;DHT22;494;48.744;10.106;2022-07-22T05:15:18;18.80;52.00
1011;DHT22;494;48.744;10.106;2022-07-22T05:17:46;18.90;51.90
1011;DHT22;494;48.744;10.106;2022-07-22T05:20:17;19.10;51.40
1011;DHT22;494;48.744;10.106;2022-07-22T05:22:46;19.10;51.00
1011;DHT22;494;48.744;10.106;2022-07-22T05:25:15;19.30;50.80
1011;DHT22;494;48.744;10.106;2022-07-22T05:27:49;19.50;50.60
1011;DHT22;494;48.744;10.106;2022-07-22T05:30:19;19.50;49.90
1011;DHT22;494;48.744;10.106;2022-07-22T05:32:50;19.50;49.80
1011;DHT22;494;48.744;10.106;2022-07-22T05:35:21;19.50;50.10
1011;DHT22;494;48.744;10.106;2022-07-22T05:37:49;19.60;50.00
1011;DHT22;494;48.744;10.106;2022-07-22T05:40:18;19.70;50.10
1011;DHT22;494;48.744;10.106;2022-07-22T05:42:47;19.70;50.00
1011;DHT22;494;48.744;10.106;2022-07-22T05:45:17;19.80;50.00
1011;DHT22;494;48.744;10.106;2022-07-22T05:47:46;20.00;49.70
1011;DHT22;494;48.744;10.106;2022-07-22T05:50:14;20.20;49.40
1011;DHT22;494;48.744;10.106;2022-07-22T05:52:45;20.40;49.20
1011;DHT22;494;48.744;10.106;2022-07-22T05:55:13;20.60;48.70
1011;DHT22;494;48.744;10.106;2022-07-22T05:57:42;20.80;48.20
1011;DHT22;494;48.744;10.106;2022-07-22T06:00:12;21.00;47.10
1011;DHT22;494;48.744;10.106;2022-07-22T06:02:41;21.20;46.20
1011;DHT22;494;48.744;10.106;2022-07-22T06:05:12;21.20;45.50
1011;DHT22;494;48.744;10.106;2022-07-22T06:08:03;21.40;45.40
1011;DHT22;494;48.744;10.106;2022-07-22T06:10:33;21.60;44.90
1011;DHT22;494;48.744;10.106;2022-07-22T06:13:01;21.90;44.30
1011;DHT22;494;48.744;10.106;2022-07-22T06:15:30;22.10;43.90
1011;DHT22;494;48.744;10.106;2022-07-22T06:17:59;22.40;42.50
1011;DHT22;494;48.744;10.106;2022-07-22T06:20:27;22.60;41.40
1011;DHT22;494;48.744;10.106;2022-07-22T06:22:56;22.80;40.60
1011;DHT22;494;48.744;10.106;2022-07-22T06:25:26;23.00;39.60
1011;DHT22;494;48.744;10.106;2022-07-22T06:28:10;23.20;40.30
1011;DHT22;494;48.744;10.106;2022-07-22T06:30:39;23.30;39.50
1011;DHT22;494;48.744;10.106;2022-07-22T06:33:08;23.40;38.80
1011;DHT22;494;48.744;10.106;2022-07-22T06:35:38;23.60;38.00
1011;DHT22;494;48.744;10.106;2022-07-22T06:38:08;23.80;37.90
1011;DHT22;494;48.744;10.106;2022-07-22T06:40:56;23.90;36.90
1011;DHT22;494;48.744;10.106;2022-07-22T06:43:26;24.10;37.10
1011;DHT22;494;48.744;10.106;2022-07-22T06:45:55;24.30;35.30
1011;DHT22;494;48.744;10.106;2022-07-22T06:48:24;24.40;35.40
1011;DHT22;494;48.744;10.106;2022-07-22T06:50:53;24.70;34.00
1011;DHT22;494;48.744;10.106;2022-07-22T06:53:21;24.90;32.30
1011;DHT22;494;48.744;10.106;2022-07-22T06:55:50;25.10;33.10
1011;DHT22;494;48.744;10.106;2022-07-22T06:58:20;25.20;33.70
1011;DHT22;494;48.744;10.106;2022-07-22T07:00:48;25.50;33.00
1011;DHT22;494;48.744;10.106;2022-07-22T07:03:17;25.70;32.50
1011;DHT22;494;48.744;10.106;2022-07-22T07:06:03;25.80;32.60
1011;DHT22;494;48.744;10.106;2022-07-22T07:08:31;26.10;32.10
1011;DHT22;494;48.744;10.106;2022-07-22T07:11:01;26.30;31.90
1011;DHT22;494;48.744;10.106;2022-07-22T07:13:31;26.50;31.10
1011;DHT22;494;48.744;10.106;2022-07-22T07:16:00;26.80;29.90
1011;DHT22;494;48.744;10.106;2022-07-22T07:18:28;26.90;29.50
1011;DHT22;494;48.744;10.106;2022-07-22T07:20:57;27.20;30.10
1011;DHT22;494;48.744;10.106;2022-07-22T07:23:26;27.30;28.40
1011;DHT22;494;48.744;10.106;2022-07-22T07:25:54;27.50;28.30
1011;DHT22;494;48.744;10.106;2022-07-22T07:28:24;27.80;28.60
1011;DHT22;494;48.744;10.106;2022-07-22T07:30:54;28.00;28.30
1011;DHT22;494;48.744;10.106;2022-07-22T07:33:22;28.20;26.70
1011;DHT22;494;48.744;10.106;2022-07-22T07:35:51;28.20;26.00
1011;DHT22;494;48.744;10.106;2022-07-22T07:38:20;28.40;26.30
1011;DHT22;494;48.744;10.106;2022-07-22T07:40:49;28.60;25.30
1011;DHT22;494;48.744;10.106;2022-07-22T07:43:17;28.70;24.10
1011;DHT22;494;48.744;10.106;2022-07-22T07:45:47;28.90;23.00
1011;DHT22;494;48.744;10.106;2022-07-22T07:48:17;28.90;22.70
1011;DHT22;494;48.744;10.106;2022-07-22T07:50:46;28.90;22.30
1011;DHT22;494;48.744;10.106;2022-07-22T07:53:15;29.10;22.80
1011;DHT22;494;48.744;10.106;2022-07-22T07:55:46;29.10;21.60
1011;DHT22;494;48.744;10.106;2022-07-22T07:58:14;29.10;21.80
1011;DHT22;494;48.744;10.106;2022-07-22T08:00:43;29.20;22.20
1011;DHT22;494;48.744;10.106;2022-07-22T08:03:13;29.30;21.70
1011;DHT22;494;48.744;10.106;2022-07-22T08:05:43;29.50;21.70
1011;DHT22;494;48.744;10.106;2022-07-22T08:08:12;29.60;21.40
1011;DHT22;494;48.744;10.106;2022-07-22T08:10:41;29.70;20.80
1011;DHT22;494;48.744;10.106;2022-07-22T08:13:27;29.80;21.90
1011;DHT22;494;48.744;10.106;2022-07-22T08:15:56;29.90;20.20
1011;DHT22;494;48.744;10.106;2022-07-22T08:18:25;29.90;20.00
1011;DHT22;494;48.744;10.106;2022-07-22T08:20:56;30.00;20.20
1011;DHT22;494;48.744;10.106;2022-07-22T08:23:26;30.10;20.20
1011;DHT22;494;48.744;10.106;2022-07-22T08:25:55;30.20;18.70
1011;DHT22;494;48.744;10.106;2022-07-22T08:28:24;30.40;18.50
1011;DHT22;494;48.744;10.106;2022-07-22T08:30:53;30.50;17.90
1011;DHT22;494;48.744;10.106;2022-07-22T08:33:21;30.60;18.00
1011;DHT22;494;48.744;10.106;2022-07-22T08:35:50;30.80;16.60
1011;DHT22;494;48.744;10.106;2022-07-22T08:38:20;31.00;17.00
1011;DHT22;494;48.744;10.106;2022-07-22T08:40:49;31.00;16.80
1011;DHT22;494;48.744;10.106;2022-07-22T08:43:28;31.20;17.80
1011;DHT22;494;48.744;10.106;2022-07-22T08:45:58;31.30;17.50
1011;DHT22;494;48.744;10.106;2022-07-22T08:48:27;31.30;17.30
1011;DHT22;494;48.744;10.106;2022-07-22T08:50:56;31.40;17.30
1011;DHT22;494;48.744;10.106;2022-07-22T08:53:26;31.40;17.20
1011;DHT22;494;48.744;10.106;2022-07-22T08:55:54;31.50;17.60
1011;DHT22;494;48.744;10.106;2022-07-22T08:58:25;31.60;17.90
1011;DHT22;494;48.744;10.106;2022-07-22T09:01:08;31.60;17.90
1011;DHT22;494;48.744;10.106;2022-07-22T09:03:45;31.70;18.00
1011;DHT22;494;48.744;10.106;2022-07-22T09:06:17;31.80;17.10
1011;DHT22;494;48.744;10.106;2022-07-22T09:08:52;31.90;16.40
1011;DHT22;494;48.744;10.106;2022-07-22T09:11:23;32.10;16.70
1011;DHT22;494;48.744;10.106;2022-07-22T09:13:53;32.00;16.10
1011;DHT22;494;48.744;10.106;2022-07-22T09:16:40;32.00;17.10
1011;DHT22;494;48.744;10.106;2022-07-22T09:19:10;32.10;16.00
1011;DHT22;494;48.744;10.106;2022-07-22T09:21:40;32.30;17.10
1011;DHT22;494;48.744;10.106;2022-07-22T09:24:26;32.40;16.80
1011;DHT22;494;48.744;10.106;2022-07-22T09:26:56;32.40;16.00
1011;DHT22;494;48.744;10.106;2022-07-22T09:29:25;32.50;16.60
1011;DHT22;494;48.744;10.106;2022-07-22T09:32:03;32.50;16.60
1011;DHT22;494;48.744;10.106;2022-07-22T09:34:35;32.60;15.70
1011;DHT22;494;48.744;10.106;2022-07-22T09:37:04;32.70;15.20
1011;DHT22;494;48.744;10.106;2022-07-22T09:39:34;32.80;14.50
1011;DHT22;494;48.744;10.106;2022-07-22T09:42:06;33.10;16.80
1011;DHT22;494;48.744;10.106;2022-07-22T09:44:35;33.20;15.80
1011;DHT22;494;48.744;10.106;2022-07-22T09:47:04;33.40;15.00
1011;DHT22;494;48.744;10.106;2022-07-22T09:49:35;33.50;14.70
1011;DHT22;494;48.744;10.106;2022-07-22T09:52:06;33.40;14.50
1011;DHT22;494;48.744;10.106;2022-07-22T09:54:37;33.30;14.50
1011;DHT22;494;48.744;10.106;2022-07-22T09:57:06;33.30;14.50
1011;DHT22;494;48.744;10.106;2022-07-22T09:59:35;33.30;15.00
1011;DHT22;494;48.744;10.106;2022-07-22T10:02:04;33.40;15.10
1011;DHT22;494;48.744;10.106;2022-07-22T10:04:35;33.50;15.80
1011;DHT22;494;48.744;10.106;2022-07-22T10:07:04;33.60;14.30
1011;DHT22;494;48.744;10.106;2022-07-22T10:09:35;33.70;14.90
1011;DHT22;494;48.744;10.106;2022-07-22T10:12:06;33.80;15.00
1011;DHT22;494;48.744;10.106;2022-07-22T10:14:36;34.00;15.00
1011;DHT22;494;48.744;10.106;2022-07-22T10:17:05;34.10;14.30
1011;DHT22;494;48.744;10.106;2022-07-22T10:19:35;34.20;14.10
1011;DHT22;494;48.744;10.106;2022-07-22T10:22:03;34.40;14.60
1011;DHT22;494;48.744;10.106;2022-07-22T10:24:32;34.50;12.80
1011;DHT22;494;48.744;10.106;2022-07-22T10:27:02;34.50;13.20
1011;DHT22;494;48.744;10.106;2022-07-22T10:29:32;34.50;13.30
1011;DHT22;494;48.744;10.106;2022-07-22T10:32:23;34.50;13.60
1011;DHT22;494;48.744;10.106;2022-07-22T10:35:20;34.50;13.00
1011;DHT22;494;48.744;10.106;2022-07-22T10:37:56;34.70;12.70
1011;DHT22;494;48.744;10.106;2022-07-22T10:40:28;34.80;11.90
1011;DHT22;494;48.744;10.106;2022-07-22T10:43:08;34.80;13.30
1011;DHT22;494;48.744;10.106;2022-07-22T10:45:40;34.90;12.00
1011;DHT22;494;48.744;10.106;2022-07-22T10:48:14;34.80;12.00
1011;DHT22;494;48.744;10.106;2022-07-22T10:50:53;34.90;12.30
1011;DHT22;494;48.744;10.106;2022-07-22T10:53:52;35.00;13.00
1011;DHT22;494;48.744;10.106;2022-07-22T10:56:25;35.00;12.30
1011;DHT22;494;48.744;10.106;2022-07-22T10:58:59;35.00;12.90
1011;DHT22;494;48.744;10.106;2022-07-22T11:01:38;35.20;12.60
1011;DHT22;494;48.744;10.106;2022-07-22T11:04:12;35.30;11.50
1011;DHT22;494;48.744;10.106;2022-07-22T11:06:46;35.40;11.10
1011;DHT22;494;48.744;10.106;2022-07-22T11:09:17;35.30;11.30
1011;DHT22;494;48.744;10.106;2022-07-22T11:11:48;35.40;11.40
1011;DHT22;494;48.744;10.106;2022-07-22T11:14:22;35.40;12.00
1011;DHT22;494;48.744;10.106;2022-07-22T11:16:59;35.40;12.00
1011;DHT22;494;48.744;10.106;2022-07-22T11:19:32;35.50;11.60
1011;DHT22;494;48.744;10.106;2022-07-22T11:22:02;35.60;11.10
1011;DHT22;494;48.744;10.106;2022-07-22T11:24:33;35.60;12.30
1011;DHT22;494;48.744;10.106;2022-07-22T11:27:03;35.80;11.30
1011;DHT22;494;48.744;10.106;2022-07-22T11:29:36;35.80;10.80
1011;DHT22;494;48.744;10.106;2022-07-22T11:32:08;35.90;10.80
1011;DHT22;494;48.744;10.106;2022-07-22T11:34:40;36.00;11.70
1011;DHT22;494;48.744;10.106;2022-07-22T11:37:12;36.20;11.60
1011;DHT22;494;48.744;10.106;2022-07-22T11:39:41;36.20;10.80
1011;DHT22;494;48.744;10.106;2022-07-22T11:42:10;36.40;11.00
1011;DHT22;494;48.744;10.106;2022-07-22T11:44:41;36.50;10.20
1011;DHT22;494;48.744;10.106;2022-07-22T11:47:15;36.50;9.80
1011;DHT22;494;48.744;10.106;2022-07-22T11:49:46;36.60;10.10
1011;DHT22;494;48.744;10.106;2022-07-22T11:52:15;36.80;9.10
1011;DHT22;494;48.744;10.106;2022-07-22T11:54:45;36.80;9.20
1011;DHT22;494;48.744;10.106;2022-07-22T11:57:14;36.80;9.60
1011;DHT22;494;48.744;10.106;2022-07-22T11:59:45;37.00;9.70
1011;DHT22;494;48.744;10.106;2022-07-22T12:02:14;37.10;9.10
1011;DHT22;494;48.744;10.106;2022-07-22T12:04:45;37.10;10.00
1011;DHT22;494;48.744;10.106;2022-07-22T12:07:15;37.30;9.30
1011;DHT22;494;48.744;10.106;2022-07-22T12:09:44;37.30;8.70
1011;DHT22;494;48.744;10.106;2022-07-22T12:12:13;37.40;8.50
1011;DHT22;494;48.744;10.106;2022-07-22T12:14:46;37.10;8.20
1011;DHT22;494;48.744;10.106;2022-07-22T12:17:15;37.30;9.10
1011;DHT22;494;48.744;10.106;2022-07-22T12:19:44;37.50;8.80
1011;DHT22;494;48.744;10.106;2022-07-22T12:22:20;37.40;8.50
1011;DHT22;494;48.744;10.106;2022-07-22T12:24:59;37.40;8.10
1011;DHT22;494;48.744;10.106;2022-07-22T12:27:29;37.50;9.00
1011;DHT22;494;48.744;10.106;2022-07-22T12:29:59;37.70;9.40
1011;DHT22;494;48.744;10.106;2022-07-22T12:32:29;37.80;8.50
1011;DHT22;494;48.744;10.106;2022-07-22T12:34:59;38.00;8.00
1011;DHT22;494;48.744;10.106;2022-07-22T12:37:30;38.30;7.70
1011;DHT22;494;48.744;10.106;2022-07-22T12:40:01;38.20;7.50
1011;DHT22;494;48.744;10.106;2022-07-22T12:42:33;38.30;7.50
1011;DHT22;494;48.744;10.106;2022-07-22T12:45:07;38.40;7.80
1011;DHT22;494;48.744;10.106;2022-07-22T12:47:42;38.50;7.80
1011;DHT22;494;48.744;10.106;2022-07-22T12:50:24;38.70;7.30
1011;DHT22;494;48.744;10.106;2022-07-22T12:52:56;38.80;7.30
1011;DHT22;494;48.744;10.106;2022-07-22T12:55:47;38.90;6.90
1011;DHT22;494;48.744;10.106;2022-07-22T12:58:19;39.20;7.80
1011;DHT22;494;48.744;10.106;2022-07-22T13:00:51;39.10;7.50
1011;DHT22;494;48.744;10.106;2022-07-22T13:03:21;39.10;7.90
1011;DHT22;494;48.744;10.106;2022-07-22T13:05:54;39.10;6.80
1011;DHT22;494;48.744;10.106;2022-07-22T13:08:25;39.20;7.50
1011;DHT22;494;48.744;10.106;2022-07-22T13:11:07;39.40;7.20
1011;DHT22;494;48.744;10.106;2022-07-22T13:13:35;39.50;7.60
1011;DHT22;494;48.744;10.106;2022-07-22T13:16:06;39.60;7.40
1011;DHT22;494;48.744;10.106;2022-07-22T13:18:35;39.70;6.50
1011;DHT22;494;48.744;10.106;2022-07-22T13:21:03;39.60;5.60
1011;DHT22;494;48.744;10.106;2022-07-22T13:23:32;39.50;5.30
1011;DHT22;494;48.744;10.106;2022-07-22T13:26:01;39.70;5.50
1011;DHT22;494;48.744;10.106;2022-07-22T13:28:29;39.70;4.90
1011;DHT22;494;48.744;10.106;2022-07-22T13:30:58;39.50;5.80
1011;DHT22;494;48.744;10.106;2022-07-22T13:33:28;39.60;6.10
1011;DHT22;494;48.744;10.106;2022-07-22T13:35:56;39.50;6.30
1011;DHT22;494;48.744;10.106;2022-07-22T13:38:25;39.70;6.10
1011;DHT22;494;48.744;10.106;2022-07-22T13:40:53;39.70;6.00
1011;DHT22;494;48.744;10.106;2022-07-22T13:43:23;39.70;5.00
1011;DHT22;494;48.744;10.106;2022-07-22T13:45:53;39.90;3.30
1011;DHT22;494;48.744;10.106;2022-07-22T13:48:22;39.70;4.70
1011;DHT22;494;48.744;10.106;2022-07-22T13:50:53;39.90;4.80
1011;DHT22;494;48.744;10.106;2022-07-22T13:53:22;40.10;6.10
1011;DHT22;494;48.744;10.106;2022-07-22T13:55:50;40.10;5.80
1011;DHT22;494;48.744;10.106;2022-07-22T13:58:19;40.10;5.50
1011;DHT22;494;48.744;10.106;2022-07-22T14:00:47;40.40;4.80
1011;DHT22;494;48.744;10.106;2022-07-22T14:03:16;40.10;5.30
1011;DHT22;494;48.744;10.106;2022-07-22T14:05:44;40.20;4.20
1011;DHT22;494;48.744;10.106;2022-07-22T14:08:15;39.80;4.30
1011;DHT22;494;48.744;10.106;2022-07-22T14:10:44;39.70;5.10
1011;DHT22;494;48.744;10.106;2022-07-22T14:13:13;40.00;4.90
1011;DHT22;494;48.744;10.106;2022-07-22T14:15:41;40.40;4.60
1011;DHT22;494;48.744;10.106;2022-07-22T14:18:10;40.10;4.60
1011;DHT22;494;48.744;10.106;2022-07-22T14:20:39;40.20;4.70
1011;DHT22;494;48.744;10.106;2022-07-22T14:23:08;40.30;4.30
1011;DHT22;494;48.744;10.106;2022-07-22T14:25:39;40.50;5.00
1011;DHT22;494;48.744;10.106;2022-07-22T14:28:08;40.40;4.60
1011;DHT22;494;48.744;10.106;2022-07-22T14:30:56;40.40;5.20
1011;DHT22;494;48.744;10.106;2022-07-22T14:33:25;40.70;4.20
1011;DHT22;494;48.744;10.106;2022-07-22T14:35:54;40.90;4.40
1011;DHT22;494;48.744;10.106;2022-07-22T14:38:22;41.10;4.50
1011;DHT22;494;48.744;10.106;2022-07-22T14:40:52;41.30;4.30
1011;DHT22;494;48.744;10.106;2022-07-22T14:43:21;41.40;3.90
1011;DHT22;494;48.744;10.106;2022-07-22T14:46:02;41.20;3.80
1011;DHT22;494;48.744;10.106;2022-07-22T14:48:31;41.20;3.50
1011;DHT22;494;48.744;10.106;2022-07-22T14:51:00;41.00;3.70
1011;DHT22;494;48.744;10.106;2022-07-22T14:53:28;41.10;3.20
1011;DHT22;494;48.744;10.106;2022-07-22T14:55:59;41.40;3.00
1011;DHT22;494;48.744;10.106;2022-07-22T14:58:28;41.50;3.10
1011;DHT22;494;48.744;10.106;2022-07-22T15:00:56;41.60;2.70
1011;DHT22;494;48.744;10.106;2022-07-22T15:03:25;41.60;3.30
1011;DHT22;494;48.744;10.106;2022-07-22T15:05:53;41.80;3.30
1011;DHT22;494;48.744;10.106;2022-07-22T15:08:22;41.40;3.10
1011;DHT22;494;48.744;10.106;2022-07-22T15:10:50;41.20;3.20
1011;DHT22;494;48.744;10.106;2022-07-22T15:13:20;41.20;3.80
1011;DHT22;494;48.744;10.106;2022-07-22T15:15:53;41.10;2.90
1011;DHT22;494;48.744;10.106;2022-07-22T15:18:22;41.20;3.10
1011;DHT22;494;48.744;10.106;2022-07-22T15:20:51;41.50;2.60
1011;DHT22;494;48.744;10.106;2022-07-22T15:23:22;41.40;2.60
1011;DHT22;494;48.744;10.106;2022-07-22T15:25:52;41.20;2.80
1011;DHT22;494;48.744;10.106;2022-07-22T15:28:23;41.20;2.60
1011;DHT22;494;48.744;10.106;2022-07-22T15:31:01;41.10;2.40
1011;DHT22;494;48.744;10.106;2022-07-22T15:33:30;40.90;2.70
1011;DHT22;494;48.744;10.106;2022-07-22T15:36:05;40.70;3.20
1011;DHT22;494;48.744;10.106;2022-07-22T15:38:36;40.30;3.30
1011;DHT22;494;48.744;10.106;2022-07-22T15:41:05;39.80;3.60
1011;DHT22;494;48.744;10.106;2022-07-22T15:43:37;39.50;3.90
1011;DHT22;494;48.744;10.106;2022-07-22T15:46:07;39.30;4.80
1011;DHT22;494;48.744;10.106;2022-07-22T15:48:37;39.00;5.60
1011;DHT22;494;48.744;10.106;2022-07-22T15:51:08;38.80;5.10
1011;DHT22;494;48.744;10.106;2022-07-22T15:53:37;38.70;5.40
1011;DHT22;494;48.744;10.106;2022-07-22T15:56:06;39.00;5.90
1011;DHT22;494;48.744;10.106;2022-07-22T15:58:36;39.10;4.90
1011;DHT22;494;48.744;10.106;2022-07-22T16:01:42;39.30;5.60
1011;DHT22;494;48.744;10.106;2022-07-22T16:04:11;39.60;5.20
1011;DHT22;494;48.744;10.106;2022-07-22T16:06:40;39.90;4.80
1011;DHT22;494;48.744;10.106;2022-07-22T16:09:10;40.10;4.50
1011;DHT22;494;48.744;10.106;2022-07-22T16:11:38;40.20;4.10
1011;DHT22;494;48.744;10.106;2022-07-22T16:14:08;40.10;5.00
1011;DHT22;494;48.744;10.106;2022-07-22T16:16:37;40.00;4.60
1011;DHT22;494;48.744;10.106;2022-07-22T16:19:05;40.10;4.70
1011;DHT22;494;48.744;10.106;2022-07-22T16:21:34;40.10;4.80
1011;DHT22;494;48.744;10.106;2022-07-22T16:24:03;39.50;4.50
1011;DHT22;494;48.744;10.106;2022-07-22T16:26:32;39.20;5.20
1011;DHT22;494;48.744;10.106;2022-07-22T16:29:01;39.20;5.70